<?xml version="1.0" encoding="UTF-8" standalone="no" ?>
<gpx xmlns="http://www.topografix.com/GPX/1/1" xmlns:xsi="http://www.w3.org/2001/XMLSchema-instance" xsi:schemaLocation="http://www.topografix.com/GPX/1/1 http://www.topografix.com/GPX/1/1/gpx.xsd" version="1.1" creator="VisuGPX - https://www.visugpx.com">
  <metadata>
    <name>Footing à Givry</name>
    <desc><![CDATA[Parcours d\'Arnaud]]></desc>
  </metadata>
  <trk>
    <name><![CDATA[givry on GPSies.com]]></name>
    <trkseg>
      <trkpt lat="46.78423" lon="4.73902">
        <ele>226</ele>
        <time>2010-01-01T00:00:00Z</time>
      </trkpt>
      <trkpt lat="46.78452" lon="4.73866">
        <ele>228</ele>
        <time>2010-01-01T00:00:15Z</time>
      </trkpt>
      <trkpt lat="46.78474" lon="4.73795">
        <ele>229</ele>
        <time>2010-01-01T00:00:36Z</time>
      </trkpt>
      <trkpt lat="46.78474" lon="4.7378">
        <ele>229</ele>
        <time>2010-01-01T00:00:40Z</time>
      </trkpt>
      <trkpt lat="46.78466" lon="4.73763">
        <ele>229</ele>
        <time>2010-01-01T00:00:46Z</time>
      </trkpt>
      <trkpt lat="46.78427" lon="4.73714">
        <ele>229</ele>
        <time>2010-01-01T00:01:06Z</time>
      </trkpt>
      <trkpt lat="46.78423" lon="4.73699">
        <ele>230</ele>
        <time>2010-01-01T00:01:11Z</time>
      </trkpt>
      <trkpt lat="46.78421" lon="4.73665">
        <ele>231</ele>
        <time>2010-01-01T00:01:20Z</time>
      </trkpt>
      <trkpt lat="46.78378" lon="4.73573">
        <ele>235</ele>
        <time>2010-01-01T00:01:51Z</time>
      </trkpt>
      <trkpt lat="46.7836" lon="4.73549">
        <ele>236</ele>
        <time>2010-01-01T00:02:01Z</time>
      </trkpt>
      <trkpt lat="46.78331" lon="4.73526">
        <ele>236</ele>
        <time>2010-01-01T00:02:14Z</time>
      </trkpt>
      <trkpt lat="46.78288" lon="4.73472">
        <ele>239</ele>
        <time>2010-01-01T00:02:36Z</time>
      </trkpt>
      <trkpt lat="46.78173" lon="4.73366">
        <ele>239</ele>
        <time>2010-01-01T00:03:31Z</time>
      </trkpt>
      <trkpt lat="46.78167" lon="4.73353">
        <ele>239</ele>
        <time>2010-01-01T00:03:35Z</time>
      </trkpt>
      <trkpt lat="46.78159" lon="4.73311">
        <ele>240</ele>
        <time>2010-01-01T00:03:47Z</time>
      </trkpt>
      <trkpt lat="46.78144" lon="4.73288">
        <ele>239</ele>
        <time>2010-01-01T00:03:56Z</time>
      </trkpt>
      <trkpt lat="46.7804" lon="4.73163">
        <ele>235</ele>
        <time>2010-01-01T00:04:50Z</time>
      </trkpt>
      <trkpt lat="46.77997" lon="4.731">
        <ele>237</ele>
        <time>2010-01-01T00:05:14Z</time>
      </trkpt>
      <trkpt lat="46.77973" lon="4.73075">
        <ele>239</ele>
        <time>2010-01-01T00:05:26Z</time>
      </trkpt>
      <trkpt lat="46.77938" lon="4.72998">
        <ele>242</ele>
        <time>2010-01-01T00:05:51Z</time>
      </trkpt>
      <trkpt lat="46.77921" lon="4.72945">
        <ele>244</ele>
        <time>2010-01-01T00:06:07Z</time>
      </trkpt>
      <trkpt lat="46.77926" lon="4.72944">
        <ele>244</ele>
        <time>2010-01-01T00:06:09Z</time>
      </trkpt>
      <trkpt lat="46.7794" lon="4.72942">
        <ele>245</ele>
        <time>2010-01-01T00:06:15Z</time>
      </trkpt>
      <trkpt lat="46.77958" lon="4.72948">
        <ele>246</ele>
        <time>2010-01-01T00:06:22Z</time>
      </trkpt>
      <trkpt lat="46.77993" lon="4.72868">
        <ele>256</ele>
        <time>2010-01-01T00:06:48Z</time>
      </trkpt>
      <trkpt lat="46.78006" lon="4.72854">
        <ele>258</ele>
        <time>2010-01-01T00:06:55Z</time>
      </trkpt>
      <trkpt lat="46.78023" lon="4.72851">
        <ele>262</ele>
        <time>2010-01-01T00:07:02Z</time>
      </trkpt>
      <trkpt lat="46.78044" lon="4.72854">
        <ele>266</ele>
        <time>2010-01-01T00:07:10Z</time>
      </trkpt>
      <trkpt lat="46.78088" lon="4.72876">
        <ele>270</ele>
        <time>2010-01-01T00:07:29Z</time>
      </trkpt>
      <trkpt lat="46.78162" lon="4.72931">
        <ele>275</ele>
        <time>2010-01-01T00:08:02Z</time>
      </trkpt>
      <trkpt lat="46.78191" lon="4.72959">
        <ele>272</ele>
        <time>2010-01-01T00:08:16Z</time>
      </trkpt>
      <trkpt lat="46.78207" lon="4.72963">
        <ele>274</ele>
        <time>2010-01-01T00:08:22Z</time>
      </trkpt>
      <trkpt lat="46.78255" lon="4.72963">
        <ele>279</ele>
        <time>2010-01-01T00:08:42Z</time>
      </trkpt>
      <trkpt lat="46.78257" lon="4.72966">
        <ele>279</ele>
        <time>2010-01-01T00:08:43Z</time>
      </trkpt>
      <trkpt lat="46.78256" lon="4.72642">
        <ele>319</ele>
        <time>2010-01-01T00:10:12Z</time>
      </trkpt>
      <trkpt lat="46.78264" lon="4.72445">
        <ele>333</ele>
        <time>2010-01-01T00:11:06Z</time>
      </trkpt>
      <trkpt lat="46.78263" lon="4.72417">
        <ele>334</ele>
        <time>2010-01-01T00:11:13Z</time>
      </trkpt>
      <trkpt lat="46.78248" lon="4.72341">
        <ele>336</ele>
        <time>2010-01-01T00:11:35Z</time>
      </trkpt>
      <trkpt lat="46.78241" lon="4.72167">
        <ele>344</ele>
        <time>2010-01-01T00:12:23Z</time>
      </trkpt>
      <trkpt lat="46.78246" lon="4.72018">
        <ele>355</ele>
        <time>2010-01-01T00:13:04Z</time>
      </trkpt>
      <trkpt lat="46.78254" lon="4.71939">
        <ele>359</ele>
        <time>2010-01-01T00:13:26Z</time>
      </trkpt>
      <trkpt lat="46.7825" lon="4.71891">
        <ele>360</ele>
        <time>2010-01-01T00:13:39Z</time>
      </trkpt>
      <trkpt lat="46.78238" lon="4.71869">
        <ele>360</ele>
        <time>2010-01-01T00:13:47Z</time>
      </trkpt>
      <trkpt lat="46.78206" lon="4.71856">
        <ele>356</ele>
        <time>2010-01-01T00:14:00Z</time>
      </trkpt>
      <trkpt lat="46.78184" lon="4.71836">
        <ele>354</ele>
        <time>2010-01-01T00:14:10Z</time>
      </trkpt>
      <trkpt lat="46.78169" lon="4.71815">
        <ele>352</ele>
        <time>2010-01-01T00:14:19Z</time>
      </trkpt>
      <trkpt lat="46.78153" lon="4.71779">
        <ele>349</ele>
        <time>2010-01-01T00:14:30Z</time>
      </trkpt>
      <trkpt lat="46.78136" lon="4.71699">
        <ele>347</ele>
        <time>2010-01-01T00:14:53Z</time>
      </trkpt>
      <trkpt lat="46.78099" lon="4.71564">
        <ele>349</ele>
        <time>2010-01-01T00:15:33Z</time>
      </trkpt>
      <trkpt lat="46.78065" lon="4.7147">
        <ele>351</ele>
        <time>2010-01-01T00:16:02Z</time>
      </trkpt>
      <trkpt lat="46.78055" lon="4.71419">
        <ele>351</ele>
        <time>2010-01-01T00:16:17Z</time>
      </trkpt>
      <trkpt lat="46.78051" lon="4.71365">
        <ele>349</ele>
        <time>2010-01-01T00:16:32Z</time>
      </trkpt>
      <trkpt lat="46.78039" lon="4.71303">
        <ele>345</ele>
        <time>2010-01-01T00:16:49Z</time>
      </trkpt>
      <trkpt lat="46.7803" lon="4.712">
        <ele>344</ele>
        <time>2010-01-01T00:17:18Z</time>
      </trkpt>
      <trkpt lat="46.78034" lon="4.71098">
        <ele>344</ele>
        <time>2010-01-01T00:17:46Z</time>
      </trkpt>
      <trkpt lat="46.78039" lon="4.71056">
        <ele>344</ele>
        <time>2010-01-01T00:17:58Z</time>
      </trkpt>
      <trkpt lat="46.78065" lon="4.70954">
        <ele>348</ele>
        <time>2010-01-01T00:18:27Z</time>
      </trkpt>
      <trkpt lat="46.7807" lon="4.7091">
        <ele>350</ele>
        <time>2010-01-01T00:18:40Z</time>
      </trkpt>
      <trkpt lat="46.7807" lon="4.70847">
        <ele>353</ele>
        <time>2010-01-01T00:18:57Z</time>
      </trkpt>
      <trkpt lat="46.78073" lon="4.70806">
        <ele>357</ele>
        <time>2010-01-01T00:19:08Z</time>
      </trkpt>
      <trkpt lat="46.78086" lon="4.70796">
        <ele>360</ele>
        <time>2010-01-01T00:19:14Z</time>
      </trkpt>
      <trkpt lat="46.78089" lon="4.70788">
        <ele>362</ele>
        <time>2010-01-01T00:19:17Z</time>
      </trkpt>
      <trkpt lat="46.78087" lon="4.70773">
        <ele>363</ele>
        <time>2010-01-01T00:19:21Z</time>
      </trkpt>
      <trkpt lat="46.78047" lon="4.70735">
        <ele>362</ele>
        <time>2010-01-01T00:19:40Z</time>
      </trkpt>
      <trkpt lat="46.78032" lon="4.70709">
        <ele>363</ele>
        <time>2010-01-01T00:19:49Z</time>
      </trkpt>
      <trkpt lat="46.78047" lon="4.70683">
        <ele>368</ele>
        <time>2010-01-01T00:19:58Z</time>
      </trkpt>
      <trkpt lat="46.78056" lon="4.70643">
        <ele>373</ele>
        <time>2010-01-01T00:20:10Z</time>
      </trkpt>
      <trkpt lat="46.78106" lon="4.70633">
        <ele>380</ele>
        <time>2010-01-01T00:20:30Z</time>
      </trkpt>
      <trkpt lat="46.78156" lon="4.70637">
        <ele>387</ele>
        <time>2010-01-01T00:20:50Z</time>
      </trkpt>
      <trkpt lat="46.78183" lon="4.7062">
        <ele>393</ele>
        <time>2010-01-01T00:21:02Z</time>
      </trkpt>
      <trkpt lat="46.78204" lon="4.70625">
        <ele>396</ele>
        <time>2010-01-01T00:21:11Z</time>
      </trkpt>
      <trkpt lat="46.78216" lon="4.70651">
        <ele>395</ele>
        <time>2010-01-01T00:21:19Z</time>
      </trkpt>
      <trkpt lat="46.78273" lon="4.70683">
        <ele>402</ele>
        <time>2010-01-01T00:21:44Z</time>
      </trkpt>
      <trkpt lat="46.78315" lon="4.70728">
        <ele>406</ele>
        <time>2010-01-01T00:22:04Z</time>
      </trkpt>
      <trkpt lat="46.78384" lon="4.70856">
        <ele>414</ele>
        <time>2010-01-01T00:22:49Z</time>
      </trkpt>
      <trkpt lat="46.78424" lon="4.70894">
        <ele>421</ele>
        <time>2010-01-01T00:23:08Z</time>
      </trkpt>
      <trkpt lat="46.78443" lon="4.70897">
        <ele>423</ele>
        <time>2010-01-01T00:23:16Z</time>
      </trkpt>
      <trkpt lat="46.78468" lon="4.70891">
        <ele>425</ele>
        <time>2010-01-01T00:23:26Z</time>
      </trkpt>
      <trkpt lat="46.78539" lon="4.7089">
        <ele>430</ele>
        <time>2010-01-01T00:23:54Z</time>
      </trkpt>
      <trkpt lat="46.78578" lon="4.70885">
        <ele>433</ele>
        <time>2010-01-01T00:24:10Z</time>
      </trkpt>
      <trkpt lat="46.78659" lon="4.70856">
        <ele>435</ele>
        <time>2010-01-01T00:24:43Z</time>
      </trkpt>
      <trkpt lat="46.78688" lon="4.70828">
        <ele>434</ele>
        <time>2010-01-01T00:24:57Z</time>
      </trkpt>
      <trkpt lat="46.7874" lon="4.70741">
        <ele>431</ele>
        <time>2010-01-01T00:25:29Z</time>
      </trkpt>
      <trkpt lat="46.78771" lon="4.70714">
        <ele>428</ele>
        <time>2010-01-01T00:25:43Z</time>
      </trkpt>
      <trkpt lat="46.78766" lon="4.70783">
        <ele>429</ele>
        <time>2010-01-01T00:26:03Z</time>
      </trkpt>
      <trkpt lat="46.78772" lon="4.70881">
        <ele>427</ele>
        <time>2010-01-01T00:26:29Z</time>
      </trkpt>
      <trkpt lat="46.78771" lon="4.70937">
        <ele>425</ele>
        <time>2010-01-01T00:26:45Z</time>
      </trkpt>
      <trkpt lat="46.78762" lon="4.70983">
        <ele>425</ele>
        <time>2010-01-01T00:26:58Z</time>
      </trkpt>
      <trkpt lat="46.78757" lon="4.7104">
        <ele>423</ele>
        <time>2010-01-01T00:27:14Z</time>
      </trkpt>
      <trkpt lat="46.78763" lon="4.71247">
        <ele>415</ele>
        <time>2010-01-01T00:28:10Z</time>
      </trkpt>
      <trkpt lat="46.78766" lon="4.71291">
        <ele>413</ele>
        <time>2010-01-01T00:28:23Z</time>
      </trkpt>
      <trkpt lat="46.78777" lon="4.71351">
        <ele>409</ele>
        <time>2010-01-01T00:28:40Z</time>
      </trkpt>
      <trkpt lat="46.78828" lon="4.71478">
        <ele>397</ele>
        <time>2010-01-01T00:29:20Z</time>
      </trkpt>
      <trkpt lat="46.78834" lon="4.71526">
        <ele>393</ele>
        <time>2010-01-01T00:29:33Z</time>
      </trkpt>
      <trkpt lat="46.78835" lon="4.71562">
        <ele>390</ele>
        <time>2010-01-01T00:29:43Z</time>
      </trkpt>
      <trkpt lat="46.78823" lon="4.71652">
        <ele>389</ele>
        <time>2010-01-01T00:30:08Z</time>
      </trkpt>
      <trkpt lat="46.78839" lon="4.71762">
        <ele>383</ele>
        <time>2010-01-01T00:30:39Z</time>
      </trkpt>
      <trkpt lat="46.78821" lon="4.72069">
        <ele>384</ele>
        <time>2010-01-01T00:32:04Z</time>
      </trkpt>
      <trkpt lat="46.78809" lon="4.72163">
        <ele>381</ele>
        <time>2010-01-01T00:32:30Z</time>
      </trkpt>
      <trkpt lat="46.78816" lon="4.72179">
        <ele>381</ele>
        <time>2010-01-01T00:32:35Z</time>
      </trkpt>
      <trkpt lat="46.78831" lon="4.72236">
        <ele>379</ele>
        <time>2010-01-01T00:32:52Z</time>
      </trkpt>
      <trkpt lat="46.7884" lon="4.72295">
        <ele>377</ele>
        <time>2010-01-01T00:33:08Z</time>
      </trkpt>
      <trkpt lat="46.78861" lon="4.7238">
        <ele>375</ele>
        <time>2010-01-01T00:33:33Z</time>
      </trkpt>
      <trkpt lat="46.7887" lon="4.72403">
        <ele>374</ele>
        <time>2010-01-01T00:33:40Z</time>
      </trkpt>
      <trkpt lat="46.78909" lon="4.7248">
        <ele>371</ele>
        <time>2010-01-01T00:34:07Z</time>
      </trkpt>
      <trkpt lat="46.79005" lon="4.7264">
        <ele>362</ele>
        <time>2010-01-01T00:35:05Z</time>
      </trkpt>
      <trkpt lat="46.79079" lon="4.72802">
        <ele>354</ele>
        <time>2010-01-01T00:35:58Z</time>
      </trkpt>
      <trkpt lat="46.79136" lon="4.72882">
        <ele>352</ele>
        <time>2010-01-01T00:36:30Z</time>
      </trkpt>
      <trkpt lat="46.79181" lon="4.73041">
        <ele>352</ele>
        <time>2010-01-01T00:37:17Z</time>
      </trkpt>
      <trkpt lat="46.79195" lon="4.73067">
        <ele>352</ele>
        <time>2010-01-01T00:37:26Z</time>
      </trkpt>
      <trkpt lat="46.79238" lon="4.73114">
        <ele>352</ele>
        <time>2010-01-01T00:37:48Z</time>
      </trkpt>
      <trkpt lat="46.79292" lon="4.73226">
        <ele>351</ele>
        <time>2010-01-01T00:38:25Z</time>
      </trkpt>
      <trkpt lat="46.79296" lon="4.73254">
        <ele>351</ele>
        <time>2010-01-01T00:38:33Z</time>
      </trkpt>
      <trkpt lat="46.79295" lon="4.73325">
        <ele>350</ele>
        <time>2010-01-01T00:38:53Z</time>
      </trkpt>
      <trkpt lat="46.79309" lon="4.73361">
        <ele>348</ele>
        <time>2010-01-01T00:39:04Z</time>
      </trkpt>
      <trkpt lat="46.79329" lon="4.73393">
        <ele>347</ele>
        <time>2010-01-01T00:39:16Z</time>
      </trkpt>
      <trkpt lat="46.79361" lon="4.73429">
        <ele>344</ele>
        <time>2010-01-01T00:39:32Z</time>
      </trkpt>
      <trkpt lat="46.79412" lon="4.73475">
        <ele>340</ele>
        <time>2010-01-01T00:39:56Z</time>
      </trkpt>
      <trkpt lat="46.79467" lon="4.73567">
        <ele>327</ele>
        <time>2010-01-01T00:40:29Z</time>
      </trkpt>
      <trkpt lat="46.79476" lon="4.73591">
        <ele>326</ele>
        <time>2010-01-01T00:40:37Z</time>
      </trkpt>
      <trkpt lat="46.7948" lon="4.7362">
        <ele>326</ele>
        <time>2010-01-01T00:40:45Z</time>
      </trkpt>
      <trkpt lat="46.79468" lon="4.73695">
        <ele>326</ele>
        <time>2010-01-01T00:41:06Z</time>
      </trkpt>
      <trkpt lat="46.79434" lon="4.73826">
        <ele>325</ele>
        <time>2010-01-01T00:41:44Z</time>
      </trkpt>
      <trkpt lat="46.7943" lon="4.73869">
        <ele>323</ele>
        <time>2010-01-01T00:41:56Z</time>
      </trkpt>
      <trkpt lat="46.79432" lon="4.73905">
        <ele>321</ele>
        <time>2010-01-01T00:42:06Z</time>
      </trkpt>
      <trkpt lat="46.79424" lon="4.739">
        <ele>322</ele>
        <time>2010-01-01T00:42:10Z</time>
      </trkpt>
      <trkpt lat="46.79426" lon="4.73971">
        <ele>320</ele>
        <time>2010-01-01T00:42:29Z</time>
      </trkpt>
      <trkpt lat="46.79423" lon="4.73996">
        <ele>320</ele>
        <time>2010-01-01T00:42:36Z</time>
      </trkpt>
      <trkpt lat="46.79415" lon="4.74021">
        <ele>319</ele>
        <time>2010-01-01T00:42:44Z</time>
      </trkpt>
      <trkpt lat="46.79386" lon="4.74073">
        <ele>317</ele>
        <time>2010-01-01T00:43:02Z</time>
      </trkpt>
      <trkpt lat="46.79381" lon="4.74108">
        <ele>314</ele>
        <time>2010-01-01T00:43:12Z</time>
      </trkpt>
      <trkpt lat="46.7939" lon="4.74152">
        <ele>311</ele>
        <time>2010-01-01T00:43:25Z</time>
      </trkpt>
      <trkpt lat="46.79402" lon="4.74178">
        <ele>309</ele>
        <time>2010-01-01T00:43:33Z</time>
      </trkpt>
      <trkpt lat="46.79407" lon="4.7422">
        <ele>307</ele>
        <time>2010-01-01T00:43:45Z</time>
      </trkpt>
      <trkpt lat="46.79402" lon="4.74294">
        <ele>303</ele>
        <time>2010-01-01T00:44:05Z</time>
      </trkpt>
      <trkpt lat="46.79373" lon="4.7437">
        <ele>298</ele>
        <time>2010-01-01T00:44:29Z</time>
      </trkpt>
      <trkpt lat="46.79355" lon="4.7444">
        <ele>292</ele>
        <time>2010-01-01T00:44:50Z</time>
      </trkpt>
      <trkpt lat="46.79352" lon="4.74478">
        <ele>288</ele>
        <time>2010-01-01T00:45:00Z</time>
      </trkpt>
      <trkpt lat="46.79341" lon="4.74492">
        <ele>287</ele>
        <time>2010-01-01T00:45:06Z</time>
      </trkpt>
      <trkpt lat="46.79334" lon="4.74513">
        <ele>285</ele>
        <time>2010-01-01T00:45:12Z</time>
      </trkpt>
      <trkpt lat="46.79362" lon="4.74523">
        <ele>285</ele>
        <time>2010-01-01T00:45:24Z</time>
      </trkpt>
      <trkpt lat="46.79331" lon="4.74534">
        <ele>283</ele>
        <time>2010-01-01T00:45:37Z</time>
      </trkpt>
      <trkpt lat="46.79149" lon="4.74626">
        <ele>260</ele>
        <time>2010-01-01T00:46:54Z</time>
      </trkpt>
      <trkpt lat="46.79129" lon="4.7463">
        <ele>258</ele>
        <time>2010-01-01T00:47:02Z</time>
      </trkpt>
      <trkpt lat="46.79098" lon="4.74617">
        <ele>255</ele>
        <time>2010-01-01T00:47:15Z</time>
      </trkpt>
      <trkpt lat="46.79079" lon="4.74601">
        <ele>254</ele>
        <time>2010-01-01T00:47:23Z</time>
      </trkpt>
      <trkpt lat="46.79033" lon="4.74578">
        <ele>253</ele>
        <time>2010-01-01T00:47:43Z</time>
      </trkpt>
      <trkpt lat="46.79019" lon="4.74566">
        <ele>252</ele>
        <time>2010-01-01T00:47:49Z</time>
      </trkpt>
      <trkpt lat="46.79002" lon="4.74532">
        <ele>253</ele>
        <time>2010-01-01T00:48:01Z</time>
      </trkpt>
      <trkpt lat="46.78992" lon="4.74522">
        <ele>252</ele>
        <time>2010-01-01T00:48:06Z</time>
      </trkpt>
      <trkpt lat="46.78982" lon="4.74521">
        <ele>251</ele>
        <time>2010-01-01T00:48:10Z</time>
      </trkpt>
      <trkpt lat="46.78969" lon="4.74539">
        <ele>249</ele>
        <time>2010-01-01T00:48:17Z</time>
      </trkpt>
      <trkpt lat="46.78977" lon="4.74623">
        <ele>245</ele>
        <time>2010-01-01T00:48:40Z</time>
      </trkpt>
      <trkpt lat="46.78956" lon="4.74701">
        <ele>239</ele>
        <time>2010-01-01T00:49:03Z</time>
      </trkpt>
      <trkpt lat="46.78913" lon="4.74674">
        <ele>236</ele>
        <time>2010-01-01T00:49:22Z</time>
      </trkpt>
      <trkpt lat="46.78912" lon="4.74638">
        <ele>238</ele>
        <time>2010-01-01T00:49:32Z</time>
      </trkpt>
      <trkpt lat="46.7889" lon="4.74603">
        <ele>238</ele>
        <time>2010-01-01T00:49:45Z</time>
      </trkpt>
      <trkpt lat="46.78889" lon="4.74577">
        <ele>240</ele>
        <time>2010-01-01T00:49:52Z</time>
      </trkpt>
      <trkpt lat="46.78896" lon="4.74524">
        <ele>244</ele>
        <time>2010-01-01T00:50:07Z</time>
      </trkpt>
      <trkpt lat="46.78886" lon="4.74491">
        <ele>245</ele>
        <time>2010-01-01T00:50:17Z</time>
      </trkpt>
      <trkpt lat="46.78856" lon="4.74433">
        <ele>247</ele>
        <time>2010-01-01T00:50:37Z</time>
      </trkpt>
      <trkpt lat="46.78799" lon="4.74404">
        <ele>242</ele>
        <time>2010-01-01T00:51:01Z</time>
      </trkpt>
      <trkpt lat="46.78748" lon="4.74343">
        <ele>237</ele>
        <time>2010-01-01T00:51:27Z</time>
      </trkpt>
      <trkpt lat="46.78721" lon="4.74293">
        <ele>234</ele>
        <time>2010-01-01T00:51:45Z</time>
      </trkpt>
      <trkpt lat="46.78682" lon="4.74154">
        <ele>230</ele>
        <time>2010-01-01T00:52:26Z</time>
      </trkpt>
      <trkpt lat="46.7864" lon="4.74092">
        <ele>230</ele>
        <time>2010-01-01T00:52:50Z</time>
      </trkpt>
      <trkpt lat="46.78619" lon="4.74048">
        <ele>230</ele>
        <time>2010-01-01T00:53:04Z</time>
      </trkpt>
      <trkpt lat="46.78614" lon="4.7398">
        <ele>232</ele>
        <time>2010-01-01T00:53:23Z</time>
      </trkpt>
      <trkpt lat="46.78598" lon="4.73891">
        <ele>233</ele>
        <time>2010-01-01T00:53:48Z</time>
      </trkpt>
      <trkpt lat="46.78573" lon="4.73821">
        <ele>232</ele>
        <time>2010-01-01T00:54:10Z</time>
      </trkpt>
      <trkpt lat="46.78553" lon="4.73794">
        <ele>231</ele>
        <time>2010-01-01T00:54:21Z</time>
      </trkpt>
      <trkpt lat="46.78546" lon="4.73811">
        <ele>231</ele>
        <time>2010-01-01T00:54:26Z</time>
      </trkpt>
      <trkpt lat="46.78537" lon="4.73816">
        <ele>230</ele>
        <time>2010-01-01T00:54:30Z</time>
      </trkpt>
      <trkpt lat="46.78495" lon="4.73796">
        <ele>229</ele>
        <time>2010-01-01T00:54:48Z</time>
      </trkpt>
      <trkpt lat="46.78481" lon="4.73789">
        <ele>229</ele>
        <time>2010-01-01T00:54:54Z</time>
      </trkpt>
      <trkpt lat="46.78474" lon="4.73795">
        <ele>229</ele>
        <time>2010-01-01T00:54:57Z</time>
      </trkpt>
      <trkpt lat="46.78452" lon="4.73866">
        <ele>228</ele>
        <time>2010-01-01T00:55:18Z</time>
      </trkpt>
      <trkpt lat="46.78441" lon="4.73883">
        <ele>227</ele>
        <time>2010-01-01T00:55:25Z</time>
      </trkpt>
      <trkpt lat="46.78426" lon="4.73896">
        <ele>227</ele>
        <time>2010-01-01T00:55:32Z</time>
      </trkpt>
      <trkpt lat="46.78419" lon="4.73917">
        <ele>226</ele>
        <time>2010-01-01T00:55:38Z</time>
      </trkpt>
    </trkseg>
  </trk>
</gpx>